Аэропорт: Курумоч. Самара

ICAO: UWWW

METAR:
2019-09-21 16:00:00
UWWW 211600Z 33004MPS CAVOK 07/02 Q1008 R33/CLRD60 NOSIG RMK QFE745/0994
METAR:
2019-09-21 13:51:00
TAF UWWW 211351Z 2115/2215 33003G09MPS 6000 BKN011 TX09/2211Z TN03/2203Z BECMG 2200/2201 24003G09MPS TEMPO 2201/2204 0400 FG VV003 BECMG 2210/2211 22007MPS TEMPO 2212/2215 18008G15MPS 3100 -SHRA BKN007 BKN012CB